createdAt,value
2017-09-14T00:00:31.524Z,0
2017-09-14T00:01:17.254Z,0
2017-09-14T00:02:17.246Z,0
2017-09-14T00:03:17.332Z,0
2017-09-14T00:05:17.310Z,0
2017-09-14T00:06:17.349Z,0
2017-09-14T00:07:17.359Z,0
2017-09-14T00:08:32.009Z,0
2017-09-14T00:09:32.019Z,0
2017-09-14T00:10:17.463Z,0
2017-09-14T00:11:17.461Z,0
2017-09-14T00:12:17.469Z,0
2017-09-14T00:13:17.494Z,0
2017-09-14T00:14:17.527Z,0
2017-09-14T00:15:17.558Z,0
2017-09-14T00:16:17.550Z,0
2017-09-14T00:17:17.592Z,0
2017-09-14T00:18:17.292Z,0
2017-09-14T00:19:17.621Z,0
2017-09-14T00:20:17.641Z,0
2017-09-14T00:21:17.362Z,0
2017-09-14T00:22:17.691Z,0
2017-09-14T00:23:17.723Z,0
2017-09-14T00:24:17.744Z,0
2017-09-14T00:25:32.384Z,0
2017-09-14T00:26:17.465Z,0
2017-09-14T00:27:17.787Z,0
2017-09-14T00:28:32.431Z,0
2017-09-14T00:29:17.858Z,0
2017-09-14T00:30:32.165Z,0
2017-09-14T00:31:17.573Z,0
2017-09-14T00:32:31.905Z,0
2017-09-14T00:33:17.926Z,0
2017-09-14T00:34:17.948Z,0
2017-09-14T00:36:32.625Z,0
2017-09-14T00:38:18.044Z,0
2017-09-14T00:39:18.067Z,0
2017-09-14T00:40:18.091Z,0
2017-09-14T00:41:32.719Z,0
2017-09-14T00:42:17.815Z,0
2017-09-14T00:43:17.845Z,0
2017-09-14T00:44:18.174Z,0
2017-09-14T00:45:18.181Z,0
2017-09-14T00:46:18.210Z,0
2017-09-14T00:47:18.222Z,0
2017-09-14T00:48:18.268Z,0
2017-09-14T00:49:18.322Z,0
2017-09-14T00:50:18.301Z,0
2017-09-14T00:51:32.935Z,0
2017-09-14T00:52:32.961Z,0
2017-09-14T00:53:18.051Z,0
2017-09-14T00:54:18.382Z,0
2017-09-14T00:55:18.399Z,0
2017-09-14T00:56:33.058Z,0
2017-09-14T00:57:18.141Z,0
2017-09-14T00:58:18.471Z,0
2017-09-14T00:59:18.484Z,0
2017-09-14T01:00:18.512Z,0
2017-09-14T01:01:18.220Z,0
2017-09-14T01:02:18.236Z,0
2017-09-14T01:03:18.265Z,0
2017-09-14T01:04:18.294Z,0
2017-09-14T01:05:18.618Z,0
2017-09-14T01:07:18.658Z,0
2017-09-14T01:08:18.382Z,0
2017-09-14T01:09:18.386Z,0
2017-09-14T01:10:18.727Z,0
2017-09-14T01:11:18.757Z,0
2017-09-14T01:12:18.471Z,0
2017-09-14T01:13:18.167Z,0
2017-09-14T01:14:18.506Z,0
2017-09-14T01:15:18.527Z,0
2017-09-14T01:16:33.472Z,0
2017-09-14T01:17:18.896Z,0
2017-09-14T01:19:18.983Z,0
2017-09-14T01:20:18.944Z,0
2017-09-14T01:21:18.957Z,0
2017-09-14T01:22:18.986Z,0
2017-09-14T01:23:19.006Z,0
2017-09-14T01:24:18.730Z,0
2017-09-14T01:25:18.760Z,0
2017-09-14T01:26:18.770Z,0
2017-09-14T01:28:33.416Z,0
2017-09-14T01:29:33.755Z,0
2017-09-14T01:30:19.152Z,0
2017-09-14T01:31:19.184Z,0
2017-09-14T01:33:18.923Z,0
2017-09-14T01:34:19.264Z,0
2017-09-14T01:35:19.268Z,0
2017-09-14T01:36:19.283Z,0
2017-09-14T01:37:33.929Z,0
2017-09-14T01:38:33.950Z,0
2017-09-14T01:39:19.360Z,0
2017-09-14T01:40:19.394Z,0
2017-09-14T01:41:19.406Z,0
2017-09-14T01:42:19.431Z,0
2017-09-14T01:43:19.433Z,0
2017-09-14T01:44:34.085Z,0
2017-09-14T01:45:19.494Z,0
2017-09-14T01:46:19.502Z,0
2017-09-14T01:47:19.531Z,0
2017-09-14T01:48:19.601Z,0
2017-09-14T01:49:19.585Z,0
2017-09-14T01:50:34.215Z,0
2017-09-14T01:51:19.618Z,0
2017-09-14T01:52:19.639Z,0
2017-09-14T01:53:19.658Z,0
2017-09-14T01:55:19.396Z,0
2017-09-14T01:56:19.732Z,0
2017-09-14T01:57:19.752Z,0
2017-09-14T01:58:19.789Z,0
2017-09-14T01:59:19.806Z,0
2017-09-14T02:00:34.121Z,0
2017-09-14T02:01:19.837Z,0
2017-09-14T02:02:19.864Z,0
2017-09-14T02:03:34.486Z,0
2017-09-14T02:04:19.886Z,0
2017-09-14T02:05:19.304Z,0
2017-09-14T02:06:19.942Z,0
2017-09-14T02:07:19.974Z,0
2017-09-14T02:08:19.667Z,0
2017-09-14T02:09:20.019Z,0
2017-09-14T02:10:20.029Z,0
2017-09-14T02:11:20.060Z,0
2017-09-14T02:12:20.070Z,0
2017-09-14T02:13:19.775Z,0
2017-09-14T02:14:19.795Z,0
2017-09-14T02:15:20.143Z,0
2017-09-14T02:16:34.465Z,0
2017-09-14T02:17:20.189Z,0
2017-09-14T02:18:34.813Z,0
2017-09-14T02:19:34.836Z,0
2017-09-14T02:20:19.943Z,0
2017-09-14T02:21:20.284Z,0
2017-09-14T02:22:20.276Z,0
2017-09-14T02:23:20.309Z,0
2017-09-14T02:24:20.343Z,0
2017-09-14T02:25:20.370Z,0
2017-09-14T02:26:20.384Z,0
2017-09-14T02:27:20.402Z,0
2017-09-14T02:28:20.113Z,0
2017-09-14T02:29:20.444Z,0
2017-09-14T02:31:34.798Z,0
2017-09-14T02:32:20.211Z,0
2017-09-14T02:33:19.920Z,0
2017-09-14T02:34:35.162Z,0
2017-09-14T02:35:20.593Z,0
2017-09-14T02:36:20.612Z,0
2017-09-14T02:38:20.651Z,0
2017-09-14T02:39:20.706Z,0
2017-09-14T02:40:35.304Z,0
2017-09-14T02:41:20.410Z,0
2017-09-14T02:42:20.740Z,0
2017-09-14T02:43:20.749Z,0
2017-09-14T02:44:20.784Z,0
2017-09-14T02:45:20.792Z,0
2017-09-14T02:46:20.815Z,0
2017-09-14T02:48:20.867Z,0
2017-09-14T02:49:20.881Z,0
2017-09-14T02:50:35.507Z,0
2017-09-14T02:51:20.613Z,0
2017-09-14T02:52:20.632Z,0
2017-09-14T02:53:20.973Z,0
2017-09-14T02:54:20.672Z,0
2017-09-14T02:57:20.743Z,0
2017-09-14T02:59:21.097Z,0
2017-09-14T03:00:20.493Z,0
2017-09-14T03:01:21.149Z,0
2017-09-14T03:02:20.854Z,0
2017-09-14T03:03:35.811Z,0
2017-09-14T03:04:20.895Z,0
2017-09-14T03:05:20.923Z,0
2017-09-14T03:06:20.628Z,0
2017-09-14T03:07:20.960Z,0
2017-09-14T03:08:21.290Z,0
2017-09-14T03:09:21.317Z,0
2017-09-14T03:10:35.644Z,0
2017-09-14T03:11:21.358Z,0
2017-09-14T03:12:35.998Z,0
2017-09-14T03:13:36.026Z,0
2017-09-14T03:14:21.124Z,0
2017-09-14T03:15:36.060Z,0
2017-09-14T03:16:21.463Z,0
2017-09-14T03:17:36.124Z,0
2017-09-14T03:18:21.511Z,0
2017-09-14T03:19:35.841Z,0
2017-09-14T03:20:21.258Z,0
2017-09-14T03:21:21.569Z,0
2017-09-14T03:22:21.292Z,0
2017-09-14T03:23:21.606Z,0
2017-09-14T03:24:21.636Z,0
2017-09-14T03:25:21.352Z,0
2017-09-14T03:26:21.690Z,0
2017-09-14T03:27:21.714Z,0
2017-09-14T03:28:36.346Z,0
2017-09-14T03:29:21.428Z,0
2017-09-14T03:30:21.778Z,0
2017-09-14T03:31:36.107Z,0
2017-09-14T03:32:36.430Z,0
2017-09-14T03:33:21.842Z,0
2017-09-14T03:34:21.865Z,0
2017-09-14T03:35:36.190Z,0
2017-09-14T03:36:21.899Z,0
2017-09-14T03:37:21.298Z,0
2017-09-14T03:38:21.939Z,0
2017-09-14T03:39:21.966Z,0
2017-09-14T03:40:21.690Z,0
2017-09-14T03:41:21.996Z,0
2017-09-14T03:42:22.085Z,0
2017-09-14T03:43:22.047Z,0
2017-09-14T03:45:21.473Z,0
2017-09-14T03:46:21.809Z,0
2017-09-14T03:47:22.144Z,0
2017-09-14T03:48:22.160Z,0
2017-09-14T03:49:36.492Z,0
2017-09-14T03:50:22.266Z,0
2017-09-14T03:51:51.466Z,0
2017-09-14T03:52:22.242Z,0
2017-09-14T03:53:22.277Z,0
2017-09-14T03:54:22.294Z,0
2017-09-14T03:56:22.015Z,0
2017-09-14T03:57:22.054Z,0
2017-09-14T03:58:37.043Z,0
2017-09-14T03:59:22.086Z,0
2017-09-14T04:00:22.424Z,0
2017-09-14T04:01:22.452Z,0
2017-09-14T04:02:22.486Z,0
2017-09-14T04:03:22.483Z,4
2017-09-14T04:04:22.507Z,4
2017-09-14T04:05:22.530Z,0
2017-09-14T04:06:37.167Z,4
2017-09-14T04:07:22.577Z,4
2017-09-14T04:08:22.621Z,4
2017-09-14T04:09:22.627Z,4
2017-09-14T04:10:22.669Z,4
2017-09-14T04:11:22.651Z,4
2017-09-14T04:12:36.994Z,8
2017-09-14T04:13:22.697Z,4
2017-09-14T04:14:22.730Z,4
2017-09-14T04:15:22.759Z,8
2017-09-14T04:16:22.784Z,4
2017-09-14T04:17:22.793Z,8
2017-09-14T04:18:22.814Z,8
2017-09-14T04:19:22.828Z,12
2017-09-14T04:20:22.851Z,12
2017-09-14T04:21:22.881Z,12
2017-09-14T04:22:22.895Z,12
2017-09-14T04:23:22.922Z,16
2017-09-14T04:24:22.929Z,16
2017-09-14T04:25:22.961Z,20
2017-09-14T04:26:23.031Z,24
2017-09-14T04:27:22.700Z,24
2017-09-14T04:28:23.029Z,28
2017-09-14T04:29:23.078Z,32
2017-09-14T04:30:23.070Z,36
2017-09-14T04:31:23.090Z,44
2017-09-14T04:32:23.098Z,48
2017-09-14T04:33:23.119Z,48
2017-09-14T04:34:22.846Z,52
2017-09-14T04:35:22.857Z,52
2017-09-14T04:36:22.900Z,48
2017-09-14T04:37:22.911Z,52
2017-09-14T04:38:37.556Z,48
2017-09-14T04:39:22.948Z,48
2017-09-14T04:40:37.889Z,52
2017-09-14T04:41:23.009Z,52
2017-09-14T04:42:23.011Z,52
2017-09-14T04:43:23.042Z,56
2017-09-14T04:44:23.371Z,56
2017-09-14T04:45:23.386Z,52
2017-09-14T04:46:38.032Z,52
2017-09-14T04:47:23.436Z,56
2017-09-14T04:48:23.461Z,60
2017-09-14T04:49:23.467Z,68
2017-09-14T04:50:38.113Z,76
2017-09-14T04:51:23.524Z,80
2017-09-14T04:52:23.553Z,88
2017-09-14T04:53:23.563Z,100
2017-09-14T04:54:37.890Z,116
2017-09-14T04:55:37.904Z,132
2017-09-14T04:56:23.627Z,148
2017-09-14T04:57:23.648Z,164
2017-09-14T04:58:23.674Z,180
2017-09-14T04:59:23.691Z,192
2017-09-14T05:00:23.706Z,196
2017-09-14T05:01:23.732Z,188
2017-09-14T05:03:23.792Z,144
2017-09-14T05:04:23.796Z,120
2017-09-14T05:05:23.507Z,116
2017-09-14T05:07:23.558Z,172
2017-09-14T05:08:23.575Z,224
2017-09-14T05:09:38.524Z,244
2017-09-14T05:10:53.170Z,220
2017-09-14T05:11:23.959Z,212
2017-09-14T05:12:23.665Z,200
2017-09-14T05:13:23.678Z,188
2017-09-14T05:14:23.755Z,188
2017-09-14T05:15:23.729Z,220
2017-09-14T05:17:23.776Z,268
2017-09-14T05:18:24.108Z,256
2017-09-14T05:19:24.174Z,244
2017-09-14T05:21:24.167Z,244
2017-09-14T05:22:24.200Z,252
2017-09-14T05:23:24.222Z,212
2017-09-14T05:24:24.225Z,212
2017-09-14T05:25:24.254Z,152
2017-09-14T05:26:53.528Z,140
2017-09-14T05:27:24.286Z,140
2017-09-14T05:28:23.702Z,152
2017-09-14T05:30:24.365Z,244
2017-09-14T05:31:39.013Z,300
2017-09-14T05:32:24.411Z,364
2017-09-14T05:33:24.432Z,376
2017-09-14T05:35:24.468Z,376
2017-09-14T05:36:24.502Z,480
2017-09-14T05:37:24.519Z,624
2017-09-14T05:38:24.220Z,772
2017-09-14T05:39:24.272Z,900
2017-09-14T05:41:39.238Z,780
2017-09-14T05:42:24.314Z,760
2017-09-14T05:43:24.645Z,796
2017-09-14T05:44:24.364Z,820
2017-09-14T05:45:24.378Z,888
2017-09-14T05:46:24.714Z,868
2017-09-14T05:47:24.738Z,852
2017-09-14T05:48:39.395Z,916
2017-09-14T05:50:24.497Z,1016
2017-09-14T05:51:24.828Z,1000
2017-09-14T05:52:24.842Z,1012
2017-09-14T05:53:24.868Z,1024
2017-09-14T05:54:24.902Z,1036
2017-09-14T05:55:24.923Z,1052
2017-09-14T05:56:24.628Z,1076
2017-09-14T05:58:24.985Z,1132
2017-09-14T05:59:25.010Z,1200
2017-09-14T06:00:25.018Z,1312
2017-09-14T06:01:25.038Z,1440
2017-09-14T06:02:25.063Z,1624
2017-09-14T06:03:24.786Z,1828
2017-09-14T06:04:25.104Z,2028
2017-09-14T06:05:25.115Z,2172
2017-09-14T06:06:24.534Z,2280
2017-09-14T06:07:25.183Z,2396
2017-09-14T06:08:24.897Z,2476
2017-09-14T06:09:25.235Z,2464
2017-09-14T06:10:24.933Z,2380
2017-09-14T06:11:25.264Z,2268
2017-09-14T06:12:25.289Z,2132
2017-09-14T06:13:39.619Z,1956
2017-09-14T06:15:25.341Z,1768
2017-09-14T06:16:25.354Z,1704
2017-09-14T06:17:25.096Z,1736
2017-09-14T06:18:25.410Z,1812
2017-09-14T06:19:25.440Z,1820
2017-09-14T06:20:25.448Z,1760
2017-09-14T06:21:25.468Z,1732
2017-09-14T06:22:25.512Z,1748
2017-09-14T06:23:40.144Z,1776
2017-09-14T06:24:25.552Z,1792
2017-09-14T06:25:25.559Z,1852
2017-09-14T06:26:25.599Z,1940
2017-09-14T06:27:25.614Z,2036
2017-09-14T06:28:25.327Z,2256
2017-09-14T06:29:40.289Z,2292
2017-09-14T06:30:25.067Z,2324
2017-09-14T06:31:25.393Z,2528
2017-09-14T06:32:25.423Z,3112
2017-09-14T06:33:25.442Z,3504
2017-09-14T06:34:40.070Z,3500
2017-09-14T06:35:25.490Z,3192
2017-09-14T06:36:25.558Z,2716
2017-09-14T06:37:40.459Z,2364
2017-09-14T06:38:40.487Z,2356
2017-09-14T06:40:25.892Z,2248
2017-09-14T06:41:25.627Z,1712
2017-09-14T06:42:25.950Z,1792
2017-09-14T06:44:25.998Z,1844
2017-09-14T06:45:40.677Z,1760
2017-09-14T06:46:25.729Z,1708
2017-09-14T06:47:26.059Z,1712
2017-09-14T06:48:25.759Z,1872
2017-09-14T06:49:26.106Z,2076
2017-09-14T06:51:40.779Z,2480
2017-09-14T06:52:26.174Z,2592
2017-09-14T06:53:25.874Z,2608
2017-09-14T06:54:26.215Z,2776
2017-09-14T06:55:25.932Z,3148
2017-09-14T06:56:26.245Z,3596
2017-09-14T06:57:26.290Z,4152
2017-09-14T06:58:26.314Z,4944
2017-09-14T06:59:26.322Z,6184
2017-09-14T07:00:26.047Z,7108
2017-09-14T07:01:41.003Z,7456
2017-09-14T07:02:26.082Z,7460
2017-09-14T07:03:26.411Z,7296
2017-09-14T07:04:26.427Z,6884
2017-09-14T07:05:26.462Z,6476
2017-09-14T07:06:26.173Z,6608
2017-09-14T07:07:26.516Z,6464
2017-09-14T07:08:26.526Z,6164
2017-09-14T07:09:26.548Z,5628
2017-09-14T07:10:26.580Z,5040
2017-09-14T07:11:26.586Z,5016
2017-09-14T07:12:26.358Z,5400
2017-09-14T07:13:26.666Z,5592
2017-09-14T07:14:26.656Z,5512
2017-09-14T07:16:41.017Z,6068
2017-09-14T07:18:41.363Z,6176
2017-09-14T07:19:26.769Z,6008
2017-09-14T07:20:26.794Z,5532
2017-09-14T07:21:26.519Z,4572
2017-09-14T07:22:26.863Z,4012
2017-09-14T07:23:26.866Z,3812
2017-09-14T07:24:26.911Z,3872
2017-09-14T07:25:26.299Z,3732
2017-09-14T07:26:26.955Z,3392
2017-09-14T07:27:26.958Z,2972
2017-09-14T07:28:27.000Z,2808
2017-09-14T07:29:26.991Z,2804
2017-09-14T07:30:26.733Z,2904
2017-09-14T07:31:27.046Z,3112
2017-09-14T07:32:41.684Z,3476
2017-09-14T07:33:27.091Z,3756
2017-09-14T07:34:41.730Z,4528
2017-09-14T07:35:27.157Z,5052
2017-09-14T07:36:27.168Z,6052
2017-09-14T07:37:41.821Z,6684
2017-09-14T07:38:41.816Z,6384
2017-09-14T07:39:41.551Z,5988
2017-09-14T07:40:41.554Z,5604
2017-09-14T07:42:27.311Z,5612
2017-09-14T07:43:27.356Z,5800
2017-09-14T07:44:27.356Z,5624
2017-09-14T07:45:27.374Z,5580
2017-09-14T07:47:42.038Z,6832
2017-09-14T07:48:41.742Z,8340
2017-09-14T07:49:42.070Z,8772
2017-09-14T07:50:27.485Z,9456
2017-09-14T07:51:42.117Z,10940
2017-09-14T07:52:27.588Z,10212
2017-09-14T07:53:27.237Z,8968
2017-09-14T07:54:27.566Z,8048
2017-09-14T07:55:27.592Z,7916
2017-09-14T07:56:27.626Z,7892
2017-09-14T07:58:27.348Z,8304
2017-09-14T07:59:27.382Z,8152
2017-09-14T08:00:27.409Z,7524
2017-09-14T08:01:27.430Z,6892
2017-09-14T08:02:27.780Z,6284
2017-09-14T08:03:27.791Z,5712
2017-09-14T08:04:42.420Z,5388
2017-09-14T08:05:27.828Z,5348
2017-09-14T08:06:27.546Z,5528
2017-09-14T08:07:27.886Z,6000
2017-09-14T08:08:27.931Z,6796
2017-09-14T08:09:27.943Z,7972
2017-09-14T08:10:27.954Z,8512
2017-09-14T08:11:27.963Z,8776
2017-09-14T08:12:27.991Z,8808
2017-09-14T08:13:28.021Z,8460
2017-09-14T08:14:28.050Z,7900
2017-09-14T08:15:28.059Z,7148
2017-09-14T08:16:28.085Z,6552
2017-09-14T08:17:28.153Z,6432
2017-09-14T08:18:27.824Z,6464
2017-09-14T08:19:28.166Z,6756
2017-09-14T08:21:28.201Z,7200
2017-09-14T08:22:28.239Z,7304
2017-09-14T08:23:28.247Z,7088
2017-09-14T08:25:28.282Z,7316
2017-09-14T08:26:28.327Z,7376
2017-09-14T08:27:28.345Z,7380
2017-09-14T08:28:28.371Z,7168
2017-09-14T08:29:43.009Z,6796
2017-09-14T08:30:28.104Z,6728
2017-09-14T08:31:28.127Z,6872
2017-09-14T08:32:28.141Z,7264
2017-09-14T08:33:28.193Z,7952
2017-09-14T08:34:28.207Z,8576
2017-09-14T08:35:28.527Z,9004
2017-09-14T08:36:43.183Z,8692
2017-09-14T08:37:28.584Z,8412
2017-09-14T08:39:28.610Z,7876
2017-09-14T08:40:28.642Z,7960
2017-09-14T08:41:28.663Z,8112
2017-09-14T08:42:28.696Z,8336
2017-09-14T08:43:28.722Z,9148
2017-09-14T08:44:28.756Z,10804
2017-09-14T08:45:28.466Z,12136
2017-09-14T08:46:28.787Z,11456
2017-09-14T08:47:28.815Z,10788
2017-09-14T08:48:28.855Z,10824
2017-09-14T08:49:28.235Z,11364
2017-09-14T08:50:43.499Z,12112
2017-09-14T08:51:43.526Z,12392
2017-09-14T08:52:28.934Z,12416
2017-09-14T08:53:28.638Z,12484
2017-09-14T08:54:28.985Z,12092
2017-09-14T08:55:28.994Z,10612
2017-09-14T08:56:29.016Z,9860
2017-09-14T08:57:43.678Z,9152
2017-09-14T08:58:29.076Z,9128
2017-09-14T08:59:29.088Z,8724
2017-09-14T09:00:29.108Z,7932
2017-09-14T09:01:29.159Z,7140
2017-09-14T09:02:43.785Z,6236
2017-09-14T09:03:29.202Z,6120
2017-09-14T09:04:29.223Z,5972
2017-09-14T09:05:28.934Z,6076
2017-09-14T09:06:28.946Z,6424
2017-09-14T09:07:29.286Z,6844
2017-09-14T09:08:29.326Z,7144
2017-09-14T09:09:29.342Z,7552
2017-09-14T09:10:29.354Z,7916
2017-09-14T09:11:29.080Z,8304
2017-09-14T09:12:29.405Z,8240
2017-09-14T09:13:29.435Z,7980
2017-09-14T09:14:44.074Z,7736
2017-09-14T09:15:29.481Z,7292
2017-09-14T09:16:29.510Z,6940
2017-09-14T09:17:29.243Z,6888
2017-09-14T09:18:29.231Z,7244
2017-09-14T09:19:29.568Z,7500
2017-09-14T09:20:29.297Z,7452
2017-09-14T09:21:29.617Z,6904
2017-09-14T09:22:29.644Z,6608
2017-09-14T09:23:43.973Z,5996
2017-09-14T09:24:29.703Z,5648
2017-09-14T09:25:29.735Z,5448
2017-09-14T09:26:44.350Z,5092
2017-09-14T09:27:29.462Z,4992
2017-09-14T09:28:29.778Z,4804
2017-09-14T09:29:29.811Z,4636
2017-09-14T09:30:29.531Z,4240
2017-09-14T09:31:29.880Z,4224
2017-09-14T09:32:29.878Z,4300
2017-09-14T09:33:29.614Z,4464
2017-09-14T09:34:29.633Z,4764
2017-09-14T09:35:29.966Z,5060
2017-09-14T09:37:30.001Z,5364
2017-09-14T09:38:30.028Z,6036
2017-09-14T09:39:44.077Z,6872
2017-09-14T09:41:30.093Z,8032
2017-09-14T09:42:29.803Z,8412
2017-09-14T09:43:30.135Z,8256
2017-09-14T09:44:30.167Z,7604
2017-09-14T09:45:29.876Z,6468
2017-09-14T09:46:29.596Z,5380
2017-09-14T09:47:29.930Z,4156
2017-09-14T09:49:29.992Z,3028
2017-09-14T09:50:30.313Z,2540
2017-09-14T09:51:30.338Z,2048
2017-09-14T09:52:30.048Z,1736
2017-09-14T09:53:30.389Z,1520
2017-09-14T09:54:30.409Z,1604
2017-09-14T09:55:59.350Z,2088
2017-09-14T09:56:30.449Z,2228
2017-09-14T09:57:30.469Z,2476
2017-09-14T09:58:30.507Z,2688
2017-09-14T09:59:30.512Z,2980
2017-09-14T10:00:30.547Z,3624
2017-09-14T10:01:30.567Z,4208
2017-09-14T10:02:30.598Z,4392
2017-09-14T10:03:30.623Z,4352
2017-09-14T10:04:45.256Z,4404
2017-09-14T10:05:45.282Z,4736
2017-09-14T10:06:30.698Z,4900
2017-09-14T10:07:30.735Z,4604
2017-09-14T10:08:30.796Z,3996
2017-09-14T10:09:30.443Z,3844
2017-09-14T10:10:30.468Z,4008
2017-09-14T10:11:45.113Z,4120
2017-09-14T10:12:30.844Z,3948
2017-09-14T10:13:30.535Z,3788
2017-09-14T10:14:45.177Z,3508
2017-09-14T10:15:30.596Z,3448
2017-09-14T10:16:30.919Z,2968
2017-09-14T10:17:30.952Z,2904
2017-09-14T10:18:30.353Z,3220
2017-09-14T10:19:45.609Z,3340
2017-09-14T10:20:31.002Z,3396
2017-09-14T10:21:30.735Z,3864
2017-09-14T10:22:31.067Z,3836
2017-09-14T10:23:31.078Z,4072
2017-09-14T10:24:45.724Z,4268
2017-09-14T10:25:30.822Z,4428
2017-09-14T10:26:45.774Z,4820
2017-09-14T10:28:30.885Z,5044
2017-09-14T10:29:45.531Z,4612
2017-09-14T10:30:31.240Z,4508
2017-09-14T10:31:31.263Z,4740
2017-09-14T10:32:31.292Z,4944
2017-09-14T10:33:31.015Z,5308
2017-09-14T10:34:31.372Z,5792
2017-09-14T10:35:31.361Z,6384
2017-09-14T10:36:31.399Z,6984
2017-09-14T10:37:31.415Z,7208
2017-09-14T10:38:31.144Z,6956
2017-09-14T10:40:46.097Z,5888
2017-09-14T10:41:31.519Z,5268
2017-09-14T10:42:31.539Z,4876
2017-09-14T10:44:46.186Z,5312
2017-09-14T10:45:31.606Z,5640
2017-09-14T10:46:31.611Z,5080
2017-09-14T10:47:46.254Z,5300
2017-09-14T10:48:46.024Z,5444
2017-09-14T10:49:31.684Z,6016
2017-09-14T10:50:31.416Z,7112
2017-09-14T10:51:31.732Z,8844
2017-09-14T10:52:31.766Z,9748
2017-09-14T10:53:31.477Z,9804
2017-09-14T10:54:31.801Z,9700
2017-09-14T10:55:31.530Z,9268
2017-09-14T10:56:31.555Z,8916
2017-09-14T10:57:31.871Z,8928
2017-09-14T10:58:46.522Z,8880
2017-09-14T10:59:31.942Z,8900
2017-09-14T11:00:31.643Z,8640
2017-09-14T11:01:31.992Z,8004
2017-09-14T11:02:32.013Z,7572
2017-09-14T11:03:46.632Z,7332
2017-09-14T11:04:31.738Z,6988
2017-09-14T11:05:31.767Z,6660
2017-09-14T11:06:31.471Z,6092
2017-09-14T11:07:31.806Z,5964
2017-09-14T11:08:31.841Z,4852
2017-09-14T11:09:31.864Z,2828
2017-09-14T11:10:32.201Z,1304
2017-09-14T11:11:31.898Z,1200
2017-09-14T11:12:32.240Z,1784
2017-09-14T11:13:32.265Z,2712
2017-09-14T11:14:46.913Z,3564
2017-09-14T11:15:46.940Z,3688
2017-09-14T11:16:32.075Z,4624
2017-09-14T11:17:32.060Z,4816
2017-09-14T11:18:32.445Z,4428
2017-09-14T11:19:47.029Z,5292
2017-09-14T11:20:32.124Z,6320
2017-09-14T11:21:32.147Z,7408
2017-09-14T11:23:32.185Z,7912
2017-09-14T11:24:32.532Z,7616
2017-09-14T11:25:32.248Z,7728
2017-09-14T11:26:46.883Z,6012
2017-09-14T11:27:32.292Z,4620
2017-09-14T11:28:32.315Z,3500
2017-09-14T11:29:46.950Z,3792
2017-09-14T11:30:47.305Z,3520
2017-09-14T11:31:32.699Z,3284
2017-09-14T11:32:32.404Z,3472
2017-09-14T11:33:32.452Z,4264
2017-09-14T11:34:32.766Z,4828
2017-09-14T11:35:32.475Z,5604
2017-09-14T11:36:32.802Z,5900
2017-09-14T11:37:32.525Z,5160
2017-09-14T11:38:32.548Z,4520
2017-09-14T11:39:47.495Z,3776
2017-09-14T11:41:32.934Z,3068
2017-09-14T11:42:32.642Z,2824
2017-09-14T11:44:32.684Z,2548
2017-09-14T11:45:33.016Z,2456
2017-09-14T11:47:02.285Z,2292
2017-09-14T11:47:32.763Z,2232
2017-09-14T11:48:47.707Z,2152
2017-09-14T11:49:33.118Z,2212
2017-09-14T11:50:32.836Z,2484
2017-09-14T11:51:47.779Z,3196
2017-09-14T11:52:33.196Z,3372
2017-09-14T11:53:32.894Z,3276
2017-09-14T11:54:32.600Z,2992
2017-09-14T11:55:33.253Z,3200
2017-09-14T11:56:47.891Z,4180
2017-09-14T11:57:47.924Z,5588
2017-09-14T11:58:33.014Z,6500
2017-09-14T11:59:33.346Z,7392
2017-09-14T12:00:33.359Z,8580
2017-09-14T12:01:48.030Z,8396
2017-09-14T12:02:33.413Z,8236
2017-09-14T12:03:33.438Z,8440
2017-09-14T12:04:33.479Z,8356
2017-09-14T12:05:33.465Z,8200
2017-09-14T12:06:33.202Z,8508
2017-09-14T12:07:33.524Z,9132
2017-09-14T12:08:33.544Z,9228
2017-09-14T12:09:48.194Z,9308
2017-09-14T12:10:33.606Z,9444
2017-09-14T12:11:48.243Z,10156
2017-09-14T12:12:33.337Z,10200
2017-09-14T12:13:33.675Z,10536
2017-09-14T12:14:33.701Z,10584
2017-09-14T12:15:33.729Z,10776
2017-09-14T12:16:33.739Z,10556
2017-09-14T12:17:33.464Z,10056
2017-09-14T12:18:33.484Z,9756
2017-09-14T12:19:48.120Z,9252
2017-09-14T12:20:33.839Z,9064
2017-09-14T12:21:33.906Z,8932
2017-09-14T12:22:33.873Z,8936
2017-09-14T12:23:33.909Z,8860
2017-09-14T12:24:33.626Z,9080
2017-09-14T12:25:33.639Z,9244
2017-09-14T12:26:33.661Z,9752
2017-09-14T12:27:33.999Z,9588
2017-09-14T12:28:48.641Z,9132
2017-09-14T12:29:34.063Z,9456
2017-09-14T12:31:34.113Z,9740
2017-09-14T12:32:33.811Z,9760
2017-09-14T12:33:48.761Z,9660
2017-09-14T12:34:34.176Z,9296
2017-09-14T12:35:34.187Z,9348
2017-09-14T12:36:34.251Z,10340
2017-09-14T12:37:34.238Z,8844
2017-09-14T12:38:34.266Z,7828
2017-09-14T12:39:48.588Z,6540
2017-09-14T12:40:34.005Z,5700
2017-09-14T12:41:34.034Z,5456
2017-09-14T12:42:34.052Z,6220
2017-09-14T12:44:48.713Z,7748
2017-09-14T12:45:34.421Z,7516
2017-09-14T12:47:34.183Z,6664
2017-09-14T12:48:34.569Z,7244
2017-09-14T12:50:34.258Z,8660
2017-09-14T12:51:34.584Z,8996
2017-09-14T12:53:34.613Z,8992
2017-09-14T12:54:34.671Z,9116
2017-09-14T12:55:34.665Z,9132
2017-09-14T12:56:34.391Z,9184
2017-09-14T12:57:34.415Z,9024
2017-09-14T12:58:49.363Z,8296
2017-09-14T12:59:34.459Z,7700
2017-09-14T13:00:34.799Z,6624
2017-09-14T13:01:34.500Z,6480
2017-09-14T13:02:34.540Z,6956
2017-09-14T13:03:49.478Z,7940
2017-09-14T13:04:34.577Z,9504
2017-09-14T13:05:49.230Z,9104
2017-09-14T13:06:34.936Z,9424
2017-09-14T13:07:34.657Z,7168
2017-09-14T13:08:34.993Z,6192
2017-09-14T13:09:35.019Z,6060
2017-09-14T13:10:49.641Z,5496
2017-09-14T13:11:34.762Z,5908
2017-09-14T13:12:34.776Z,6616
2017-09-14T13:13:35.107Z,6428
2017-09-14T13:14:49.747Z,7684
2017-09-14T13:15:35.158Z,9236
2017-09-14T13:16:35.177Z,8932
2017-09-14T13:17:35.207Z,6076
2017-09-14T13:18:34.919Z,5704
2017-09-14T13:19:35.259Z,5500
2017-09-14T13:20:34.967Z,5444
2017-09-14T13:21:49.927Z,5852
2017-09-14T13:23:35.354Z,5428
2017-09-14T13:24:34.756Z,5032
2017-09-14T13:25:35.083Z,4508
2017-09-14T13:26:35.105Z,4384
2017-09-14T13:27:35.133Z,5012
2017-09-14T13:28:35.471Z,5556
2017-09-14T13:29:35.189Z,5848
2017-09-14T13:30:35.524Z,6136
2017-09-14T13:31:35.552Z,6324
2017-09-14T13:32:35.251Z,6028
2017-09-14T13:33:35.597Z,7644
2017-09-14T13:34:35.624Z,7756
2017-09-14T13:35:35.640Z,6964
2017-09-14T13:36:50.283Z,6152
2017-09-14T13:37:35.384Z,6384
2017-09-14T13:38:35.395Z,6432
2017-09-14T13:39:35.733Z,6172
2017-09-14T13:40:35.442Z,6280
2017-09-14T13:41:50.081Z,5568
2017-09-14T13:43:35.526Z,8272
2017-09-14T13:44:35.527Z,6852
2017-09-14T13:45:35.243Z,6184
2017-09-14T13:46:50.213Z,6252
2017-09-14T13:47:35.607Z,4860
2017-09-14T13:48:35.632Z,4928
2017-09-14T13:49:35.342Z,4756
2017-09-14T13:50:36.002Z,4856
2017-09-14T13:51:36.009Z,4880
2017-09-14T13:52:35.745Z,5564
2017-09-14T13:53:35.761Z,5808
2017-09-14T13:54:35.781Z,8304
2017-09-14T13:55:36.147Z,6160
2017-09-14T13:56:36.155Z,6040
2017-09-14T13:57:36.150Z,5964
2017-09-14T13:58:35.875Z,5984
2017-09-14T13:59:36.212Z,6584
2017-09-14T14:00:50.848Z,6040
2017-09-14T14:01:50.873Z,5952
2017-09-14T14:02:36.288Z,5628
2017-09-14T14:03:50.611Z,5336
2017-09-14T14:04:36.337Z,7688
2017-09-14T14:05:36.351Z,5328
2017-09-14T14:06:36.056Z,5372
2017-09-14T14:07:36.392Z,5096
2017-09-14T14:08:50.742Z,5664
2017-09-14T14:10:35.840Z,6072
2017-09-14T14:11:36.189Z,5844
2017-09-14T14:12:36.512Z,6580
2017-09-14T14:13:36.542Z,5596
2017-09-14T14:14:50.877Z,5684
2017-09-14T14:15:36.596Z,6700
2017-09-14T14:16:36.607Z,5788
2017-09-14T14:17:50.948Z,6500
2017-09-14T14:18:36.654Z,5628
2017-09-14T14:19:36.674Z,5448
2017-09-14T14:20:36.404Z,5724
2017-09-14T14:21:36.718Z,5636
2017-09-14T14:22:36.458Z,5760
2017-09-14T14:23:36.464Z,5540
2017-09-14T14:24:51.114Z,5040
2017-09-14T14:25:51.438Z,4676
2017-09-14T14:26:51.159Z,4500
2017-09-14T14:27:36.882Z,4356
2017-09-14T14:28:36.898Z,4440
2017-09-14T14:29:36.312Z,4484
2017-09-14T14:30:36.318Z,4484
2017-09-14T14:31:36.657Z,4752
2017-09-14T14:32:51.613Z,5128
2017-09-14T14:33:36.707Z,4952
2017-09-14T14:34:51.366Z,6784
2017-09-14T14:35:36.760Z,6328
2017-09-14T14:36:37.082Z,7560
2017-09-14T14:37:36.851Z,6312
2017-09-14T14:38:36.820Z,7000
2017-09-14T14:39:51.777Z,5920